sensor_id;sensor_type;location;lat;lon;timestamp;P1;durP1;ratioP1;P2;durP2;ratioP2
15476;SDS011;7840;42.702;23.296;2022-10-16T00:02:24;17.03;;;12.07;;
15476;SDS011;7840;42.702;23.296;2022-10-16T00:04:57;14.70;;;12.33;;
15476;SDS011;7840;42.702;23.296;2022-10-16T00:07:25;15.83;;;11.77;;
15476;SDS011;7840;42.702;23.296;2022-10-16T00:09:53;15.97;;;11.60;;
15476;SDS011;7840;42.702;23.296;2022-10-16T00:12:21;13.00;;;11.43;;
15476;SDS011;7840;42.702;23.296;2022-10-16T00:14:49;16.67;;;11.73;;
15476;SDS011;7840;42.702;23.296;2022-10-16T00:17:17;18.67;;;11.90;;
15476;SDS011;7840;42.702;23.296;2022-10-16T00:19:46;13.87;;;10.90;;
15476;SDS011;7840;42.702;23.296;2022-10-16T00:22:18;12.10;;;10.37;;
15476;SDS011;7840;42.702;23.296;2022-10-16T00:24:50;15.33;;;11.93;;
15476;SDS011;7840;42.702;23.296;2022-10-16T00:27:21;16.87;;;12.20;;
15476;SDS011;7840;42.702;23.296;2022-10-16T00:29:49;15.87;;;12.00;;
15476;SDS011;7840;42.702;23.296;2022-10-16T00:32:17;15.23;;;13.03;;
15476;SDS011;7840;42.702;23.296;2022-10-16T00:34:46;15.73;;;12.77;;
15476;SDS011;7840;42.702;23.296;2022-10-16T00:37:13;17.50;;;11.80;;
15476;SDS011;7840;42.702;23.296;2022-10-16T00:39:41;18.47;;;13.00;;
15476;SDS011;7840;42.702;23.296;2022-10-16T00:42:09;17.30;;;12.50;;
15476;SDS011;7840;42.702;23.296;2022-10-16T00:44:45;15.20;;;12.20;;
15476;SDS011;7840;42.702;23.296;2022-10-16T00:47:18;14.67;;;12.13;;
15476;SDS011;7840;42.702;23.296;2022-10-16T00:49:51;15.07;;;11.90;;
15476;SDS011;7840;42.702;23.296;2022-10-16T00:52:23;14.27;;;11.17;;
15476;SDS011;7840;42.702;23.296;2022-10-16T00:54:52;12.77;;;10.83;;
15476;SDS011;7840;42.702;23.296;2022-10-16T00:57:20;15.17;;;11.70;;
15476;SDS011;7840;42.702;23.296;2022-10-16T00:59:48;15.77;;;12.63;;
15476;SDS011;7840;42.702;23.296;2022-10-16T01:02:16;13.97;;;11.97;;
15476;SDS011;7840;42.702;23.296;2022-10-16T01:04:45;16.50;;;11.43;;
15476;SDS011;7840;42.702;23.296;2022-10-16T01:07:19;13.93;;;11.50;;
15476;SDS011;7840;42.702;23.296;2022-10-16T01:10:02;12.53;;;10.57;;
15476;SDS011;7840;42.702;23.296;2022-10-16T01:12:45;14.90;;;10.27;;
15476;SDS011;7840;42.702;23.296;2022-10-16T01:15:18;12.30;;;10.73;;
15476;SDS011;7840;42.702;23.296;2022-10-16T01:17:53;13.93;;;11.13;;
15476;SDS011;7840;42.702;23.296;2022-10-16T01:20:27;12.70;;;11.40;;
15476;SDS011;7840;42.702;23.296;2022-10-16T01:23:14;16.97;;;12.60;;
15476;SDS011;7840;42.702;23.296;2022-10-16T01:28:44;14.00;;;11.50;;
15476;SDS011;7840;42.702;23.296;2022-10-16T01:31:17;12.83;;;10.77;;
15476;SDS011;7840;42.702;23.296;2022-10-16T01:33:51;12.57;;;10.27;;
15476;SDS011;7840;42.702;23.296;2022-10-16T01:36:25;13.40;;;11.33;;
15476;SDS011;7840;42.702;23.296;2022-10-16T01:38:59;18.33;;;12.30;;
15476;SDS011;7840;42.702;23.296;2022-10-16T01:41:44;15.87;;;12.63;;
15476;SDS011;7840;42.702;23.296;2022-10-16T01:44:24;17.23;;;13.60;;
15476;SDS011;7840;42.702;23.296;2022-10-16T01:46:55;21.67;;;14.77;;
15476;SDS011;7840;42.702;23.296;2022-10-16T01:49:27;18.50;;;14.37;;
15476;SDS011;7840;42.702;23.296;2022-10-16T01:52:02;17.17;;;14.00;;
15476;SDS011;7840;42.702;23.296;2022-10-16T01:54:46;19.63;;;14.60;;
15476;SDS011;7840;42.702;23.296;2022-10-16T01:57:17;17.83;;;14.33;;
15476;SDS011;7840;42.702;23.296;2022-10-16T01:59:49;16.97;;;13.03;;
15476;SDS011;7840;42.702;23.296;2022-10-16T02:02:33;19.83;;;12.97;;
15476;SDS011;7840;42.702;23.296;2022-10-16T02:05:03;15.97;;;13.00;;
15476;SDS011;7840;42.702;23.296;2022-10-16T02:07:36;15.63;;;12.80;;
15476;SDS011;7840;42.702;23.296;2022-10-16T02:10:04;16.70;;;14.53;;
15476;SDS011;7840;42.702;23.296;2022-10-16T02:12:33;19.90;;;13.83;;
15476;SDS011;7840;42.702;23.296;2022-10-16T02:15:06;16.53;;;13.63;;
15476;SDS011;7840;42.702;23.296;2022-10-16T02:17:35;18.50;;;13.13;;
15476;SDS011;7840;42.702;23.296;2022-10-16T02:20:03;16.17;;;13.37;;
15476;SDS011;7840;42.702;23.296;2022-10-16T02:22:32;15.53;;;13.43;;
15476;SDS011;7840;42.702;23.296;2022-10-16T02:25:04;17.43;;;13.37;;
15476;SDS011;7840;42.702;23.296;2022-10-16T02:27:38;18.70;;;13.03;;
15476;SDS011;7840;42.702;23.296;2022-10-16T02:30:18;17.87;;;13.10;;
15476;SDS011;7840;42.702;23.296;2022-10-16T02:32:59;15.57;;;13.20;;
15476;SDS011;7840;42.702;23.296;2022-10-16T02:35:39;16.37;;;13.37;;
15476;SDS011;7840;42.702;23.296;2022-10-16T02:38:08;20.83;;;13.70;;
15476;SDS011;7840;42.702;23.296;2022-10-16T02:40:37;17.20;;;13.27;;
15476;SDS011;7840;42.702;23.296;2022-10-16T02:43:06;14.60;;;13.10;;
15476;SDS011;7840;42.702;23.296;2022-10-16T02:48:34;14.77;;;12.57;;
15476;SDS011;7840;42.702;23.296;2022-10-16T02:51:04;19.83;;;16.13;;
15476;SDS011;7840;42.702;23.296;2022-10-16T02:53:38;16.90;;;13.07;;
15476;SDS011;7840;42.702;23.296;2022-10-16T02:56:06;16.00;;;12.73;;
15476;SDS011;7840;42.702;23.296;2022-10-16T02:58:36;15.17;;;12.90;;
15476;SDS011;7840;42.702;23.296;2022-10-16T03:01:05;14.43;;;12.53;;
15476;SDS011;7840;42.702;23.296;2022-10-16T04:28:36;17.30;;;14.93;;
15476;SDS011;7840;42.702;23.296;2022-10-16T04:31:04;19.57;;;15.73;;
15476;SDS011;7840;42.702;23.296;2022-10-16T04:33:32;17.80;;;14.57;;
15476;SDS011;7840;42.702;23.296;2022-10-16T04:36:03;21.63;;;14.87;;
15476;SDS011;7840;42.702;23.296;2022-10-16T04:38:32;18.53;;;16.47;;
15476;SDS011;7840;42.702;23.296;2022-10-16T04:41:02;20.07;;;17.97;;
15476;SDS011;7840;42.702;23.296;2022-10-16T04:43:30;23.83;;;18.57;;
15476;SDS011;7840;42.702;23.296;2022-10-16T04:45:59;25.00;;;19.40;;
15476;SDS011;7840;42.702;23.296;2022-10-16T04:48:36;25.40;;;21.10;;
15476;SDS011;7840;42.702;23.296;2022-10-16T04:51:04;27.13;;;22.23;;
15476;SDS011;7840;42.702;23.296;2022-10-16T04:53:32;22.87;;;19.97;;
15476;SDS011;7840;42.702;23.296;2022-10-16T04:56:03;23.97;;;19.47;;
15476;SDS011;7840;42.702;23.296;2022-10-16T04:58:31;21.33;;;19.10;;
15476;SDS011;7840;42.702;23.296;2022-10-16T05:01:00;21.93;;;17.90;;
15476;SDS011;7840;42.702;23.296;2022-10-16T05:03:28;23.00;;;17.53;;
15476;SDS011;7840;42.702;23.296;2022-10-16T05:05:55;19.90;;;16.03;;
15476;SDS011;7840;42.702;23.296;2022-10-16T05:08:23;16.23;;;13.53;;
15476;SDS011;7840;42.702;23.296;2022-10-16T05:13:43;17.37;;;15.40;;
15476;SDS011;7840;42.702;23.296;2022-10-16T05:18:57;16.97;;;14.43;;
15476;SDS011;7840;42.702;23.296;2022-10-16T07:07:10;11.40;;;9.27;;
15476;SDS011;7840;42.702;23.296;2022-10-16T07:09:44;17.00;;;9.60;;
15476;SDS011;7840;42.702;23.296;2022-10-16T07:12:12;10.50;;;9.00;;
15476;SDS011;7840;42.702;23.296;2022-10-16T07:14:39;10.13;;;9.20;;
15476;SDS011;7840;42.702;23.296;2022-10-16T07:17:07;12.37;;;9.27;;
15476;SDS011;7840;42.702;23.296;2022-10-16T07:19:34;11.43;;;8.63;;
15476;SDS011;7840;42.702;23.296;2022-10-16T07:22:02;13.00;;;9.17;;
15476;SDS011;7840;42.702;23.296;2022-10-16T07:24:31;9.70;;;8.23;;
15476;SDS011;7840;42.702;23.296;2022-10-16T07:26:59;10.50;;;8.73;;
15476;SDS011;7840;42.702;23.296;2022-10-16T07:29:27;11.40;;;9.20;;
15476;SDS011;7840;42.702;23.296;2022-10-16T07:31:54;15.27;;;10.03;;
15476;SDS011;7840;42.702;23.296;2022-10-16T07:34:22;16.70;;;10.23;;
15476;SDS011;7840;42.702;23.296;2022-10-16T07:36:51;11.77;;;9.27;;
15476;SDS011;7840;42.702;23.296;2022-10-16T07:39:19;10.73;;;9.63;;
15476;SDS011;7840;42.702;23.296;2022-10-16T07:41:48;15.85;;;10.05;;
15476;SDS011;7840;42.702;23.296;2022-10-16T07:44:16;12.93;;;9.47;;
15476;SDS011;7840;42.702;23.296;2022-10-16T07:46:43;13.43;;;9.63;;
15476;SDS011;7840;42.702;23.296;2022-10-16T07:49:25;12.85;;;10.43;;
15476;SDS011;7840;42.702;23.296;2022-10-16T07:51:53;15.73;;;10.25;;
15476;SDS011;7840;42.702;23.296;2022-10-16T07:54:20;16.73;;;10.95;;
15476;SDS011;7840;42.702;23.296;2022-10-16T07:56:50;13.65;;;10.38;;
15476;SDS011;7840;42.702;23.296;2022-10-16T07:59:18;14.38;;;10.27;;
15476;SDS011;7840;42.702;23.296;2022-10-16T08:01:45;13.30;;;10.52;;
15476;SDS011;7840;42.702;23.296;2022-10-16T08:04:14;17.20;;;13.00;;
15476;SDS011;7840;42.702;23.296;2022-10-16T08:06:42;20.20;;;13.55;;
15476;SDS011;7840;42.702;23.296;2022-10-16T08:09:23;15.85;;;12.85;;
15476;SDS011;7840;42.702;23.296;2022-10-16T08:12:00;16.23;;;13.77;;
15476;SDS011;7840;42.702;23.296;2022-10-16T08:14:33;13.88;;;11.35;;
15476;SDS011;7840;42.702;23.296;2022-10-16T08:17:29;12.07;;;9.93;;
15476;SDS011;7840;42.702;23.296;2022-10-16T08:19:57;11.45;;;9.40;;
15476;SDS011;7840;42.702;23.296;2022-10-16T08:22:29;14.32;;;8.57;;
15476;SDS011;7840;42.702;23.296;2022-10-16T08:24:56;11.52;;;7.95;;
15476;SDS011;7840;42.702;23.296;2022-10-16T08:27:31;11.80;;;7.75;;
15476;SDS011;7840;42.702;23.296;2022-10-16T08:30:00;8.85;;;7.72;;
15476;SDS011;7840;42.702;23.296;2022-10-16T08:32:35;11.25;;;7.15;;
15476;SDS011;7840;42.702;23.296;2022-10-16T08:35:08;9.40;;;5.85;;
15476;SDS011;7840;42.702;23.296;2022-10-16T08:37:36;8.30;;;6.30;;
15476;SDS011;7840;42.702;23.296;2022-10-16T08:40:20;7.13;;;5.60;;
15476;SDS011;7840;42.702;23.296;2022-10-16T08:42:57;7.50;;;6.07;;
15476;SDS011;7840;42.702;23.296;2022-10-16T08:45:56;6.90;;;6.25;;
15476;SDS011;7840;42.702;23.296;2022-10-16T08:48:51;10.10;;;6.32;;
15476;SDS011;7840;42.702;23.296;2022-10-16T08:51:23;7.28;;;6.28;;
15476;SDS011;7840;42.702;23.296;2022-10-16T08:54:01;8.80;;;5.57;;
15476;SDS011;7840;42.702;23.296;2022-10-16T08:56:30;7.70;;;6.32;;
15476;SDS011;7840;42.702;23.296;2022-10-16T08:59:00;10.27;;;6.30;;
15476;SDS011;7840;42.702;23.296;2022-10-16T09:01:32;8.05;;;5.50;;
15476;SDS011;7840;42.702;23.296;2022-10-16T09:07:11;9.90;;;5.80;;
15476;SDS011;7840;42.702;23.296;2022-10-16T09:09:54;6.95;;;4.60;;
15476;SDS011;7840;42.702;23.296;2022-10-16T09:12:43;3.55;;;3.25;;
15476;SDS011;7840;42.702;23.296;2022-10-16T09:15:33;5.22;;;4.45;;
15476;SDS011;7840;42.702;23.296;2022-10-16T09:18:06;8.00;;;4.55;;
15476;SDS011;7840;42.702;23.296;2022-10-16T09:20:47;4.20;;;3.75;;
15476;SDS011;7840;42.702;23.296;2022-10-16T09:23:22;4.47;;;4.07;;
15476;SDS011;7840;42.702;23.296;2022-10-16T09:25:53;4.63;;;3.80;;
15476;SDS011;7840;42.702;23.296;2022-10-16T09:28:24;7.65;;;4.32;;
15476;SDS011;7840;42.702;23.296;2022-10-16T09:30:54;5.32;;;3.95;;
15476;SDS011;7840;42.702;23.296;2022-10-16T09:33:22;4.70;;;4.00;;
15476;SDS011;7840;42.702;23.296;2022-10-16T09:35:56;4.60;;;3.45;;
15476;SDS011;7840;42.702;23.296;2022-10-16T09:38:25;4.22;;;3.53;;
15476;SDS011;7840;42.702;23.296;2022-10-16T09:40:54;3.50;;;3.20;;
15476;SDS011;7840;42.702;23.296;2022-10-16T09:43:24;6.50;;;3.67;;
15476;SDS011;7840;42.702;23.296;2022-10-16T09:46:07;5.97;;;3.95;;
15476;SDS011;7840;42.702;23.296;2022-10-16T09:48:50;4.63;;;3.58;;
15476;SDS011;7840;42.702;23.296;2022-10-16T09:51:21;7.78;;;3.70;;
15476;SDS011;7840;42.702;23.296;2022-10-16T09:53:59;4.32;;;3.42;;
15476;SDS011;7840;42.702;23.296;2022-10-16T09:56:29;3.65;;;3.35;;
15476;SDS011;7840;42.702;23.296;2022-10-16T09:58:59;5.90;;;3.55;;
15476;SDS011;7840;42.702;23.296;2022-10-16T10:01:31;4.53;;;3.30;;
15476;SDS011;7840;42.702;23.296;2022-10-16T10:04:04;3.88;;;3.58;;
15476;SDS011;7840;42.702;23.296;2022-10-16T10:06:33;5.43;;;3.20;;
15476;SDS011;7840;42.702;23.296;2022-10-16T10:09:04;3.88;;;3.55;;
15476;SDS011;7840;42.702;23.296;2022-10-16T10:11:44;5.30;;;3.55;;
15476;SDS011;7840;42.702;23.296;2022-10-16T10:14:18;5.20;;;3.80;;
15476;SDS011;7840;42.702;23.296;2022-10-16T10:17:01;5.20;;;3.70;;
15476;SDS011;7840;42.702;23.296;2022-10-16T10:19:39;7.60;;;4.03;;
15476;SDS011;7840;42.702;23.296;2022-10-16T10:22:26;4.30;;;3.80;;
15476;SDS011;7840;42.702;23.296;2022-10-16T10:25:22;4.57;;;3.63;;
15476;SDS011;7840;42.702;23.296;2022-10-16T10:28:15;4.78;;;3.20;;
15476;SDS011;7840;42.702;23.296;2022-10-16T10:30:56;4.05;;;3.65;;
15476;SDS011;7840;42.702;23.296;2022-10-16T10:33:34;6.82;;;3.63;;
15476;SDS011;7840;42.702;23.296;2022-10-16T10:36:12;3.92;;;3.45;;
15476;SDS011;7840;42.702;23.296;2022-10-16T10:38:53;6.00;;;3.55;;
15476;SDS011;7840;42.702;23.296;2022-10-16T10:41:32;3.97;;;3.58;;
15476;SDS011;7840;42.702;23.296;2022-10-16T10:44:24;3.45;;;3.15;;
15476;SDS011;7840;42.702;23.296;2022-10-16T10:47:05;4.35;;;3.90;;
15476;SDS011;7840;42.702;23.296;2022-10-16T10:49:48;5.65;;;4.00;;
15476;SDS011;7840;42.702;23.296;2022-10-16T10:52:34;6.03;;;3.63;;
15476;SDS011;7840;42.702;23.296;2022-10-16T10:55:14;5.85;;;3.45;;
15476;SDS011;7840;42.702;23.296;2022-10-16T10:58:12;4.28;;;3.78;;
15476;SDS011;7840;42.702;23.296;2022-10-16T11:01:04;4.32;;;3.25;;
15476;SDS011;7840;42.702;23.296;2022-10-16T11:03:56;5.72;;;3.90;;
15476;SDS011;7840;42.702;23.296;2022-10-16T11:06:42;4.55;;;3.67;;
15476;SDS011;7840;42.702;23.296;2022-10-16T11:09:12;7.47;;;3.80;;
15476;SDS011;7840;42.702;23.296;2022-10-16T11:11:44;7.38;;;4.15;;
15476;SDS011;7840;42.702;23.296;2022-10-16T11:14:29;8.63;;;3.97;;
15476;SDS011;7840;42.702;23.296;2022-10-16T11:17:02;4.32;;;3.40;;
15476;SDS011;7840;42.702;23.296;2022-10-16T11:19:35;3.92;;;3.53;;
15476;SDS011;7840;42.702;23.296;2022-10-16T11:22:11;3.80;;;3.50;;
15476;SDS011;7840;42.702;23.296;2022-10-16T11:24:55;3.85;;;3.50;;
15476;SDS011;7840;42.702;23.296;2022-10-16T11:27:37;3.97;;;3.60;;
15476;SDS011;7840;42.702;23.296;2022-10-16T11:30:14;4.65;;;3.83;;
15476;SDS011;7840;42.702;23.296;2022-10-16T11:32:50;4.28;;;3.70;;
15476;SDS011;7840;42.702;23.296;2022-10-16T11:35:32;4.05;;;3.60;;
15476;SDS011;7840;42.702;23.296;2022-10-16T11:38:12;4.40;;;3.63;;
15476;SDS011;7840;42.702;23.296;2022-10-16T11:40:53;5.82;;;3.72;;
15476;SDS011;7840;42.702;23.296;2022-10-16T11:43:46;3.65;;;3.30;;
15476;SDS011;7840;42.702;23.296;2022-10-16T11:46:26;8.05;;;3.15;;
15476;SDS011;7840;42.702;23.296;2022-10-16T11:48:56;3.72;;;3.30;;
15476;SDS011;7840;42.702;23.296;2022-10-16T11:51:33;4.43;;;3.60;;
15476;SDS011;7840;42.702;23.296;2022-10-16T11:54:08;4.47;;;3.67;;
15476;SDS011;7840;42.702;23.296;2022-10-16T11:56:47;4.28;;;3.47;;
15476;SDS011;7840;42.702;23.296;2022-10-16T11:59:22;4.43;;;3.33;;
15476;SDS011;7840;42.702;23.296;2022-10-16T12:02:19;3.92;;;3.53;;
15476;SDS011;7840;42.702;23.296;2022-10-16T12:05:03;4.35;;;3.60;;
15476;SDS011;7840;42.702;23.296;2022-10-16T12:07:36;5.05;;;3.08;;
15476;SDS011;7840;42.702;23.296;2022-10-16T12:10:17;5.38;;;3.60;;
15476;SDS011;7840;42.702;23.296;2022-10-16T12:12:47;5.50;;;2.90;;
15476;SDS011;7840;42.702;23.296;2022-10-16T12:15:33;2.65;;;2.45;;
15476;SDS011;7840;42.702;23.296;2022-10-16T12:18:04;3.33;;;2.90;;
15476;SDS011;7840;42.702;23.296;2022-10-16T12:20:53;4.68;;;3.63;;
15476;SDS011;7840;42.702;23.296;2022-10-16T12:23:24;7.13;;;3.08;;
15476;SDS011;7840;42.702;23.296;2022-10-16T12:25:57;4.35;;;3.30;;
15476;SDS011;7840;42.702;23.296;2022-10-16T12:28:28;4.10;;;3.13;;
15476;SDS011;7840;42.702;23.296;2022-10-16T12:30:57;3.33;;;3.05;;
15476;SDS011;7840;42.702;23.296;2022-10-16T12:33:27;6.35;;;3.08;;
15476;SDS011;7840;42.702;23.296;2022-10-16T12:35:56;5.03;;;3.65;;
15476;SDS011;7840;42.702;23.296;2022-10-16T12:38:27;4.93;;;3.00;;
15476;SDS011;7840;42.702;23.296;2022-10-16T12:41:02;4.75;;;3.08;;
15476;SDS011;7840;42.702;23.296;2022-10-16T12:43:39;3.83;;;2.80;;
15476;SDS011;7840;42.702;23.296;2022-10-16T12:46:26;3.30;;;3.00;;
15476;SDS011;7840;42.702;23.296;2022-10-16T12:49:28;4.10;;;2.83;;
15476;SDS011;7840;42.702;23.296;2022-10-16T12:51:57;5.18;;;3.47;;
15476;SDS011;7840;42.702;23.296;2022-10-16T12:54:27;3.05;;;2.85;;
15476;SDS011;7840;42.702;23.296;2022-10-16T12:57:19;9.32;;;2.88;;
15476;SDS011;7840;42.702;23.296;2022-10-16T13:00:02;3.20;;;2.90;;
15476;SDS011;7840;42.702;23.296;2022-10-16T13:02:49;4.07;;;2.83;;
15476;SDS011;7840;42.702;23.296;2022-10-16T13:05:51;5.43;;;2.97;;
15476;SDS011;7840;42.702;23.296;2022-10-16T13:08:48;4.85;;;3.10;;
15476;SDS011;7840;42.702;23.296;2022-10-16T13:11:42;4.20;;;2.80;;
15476;SDS011;7840;42.702;23.296;2022-10-16T13:14:34;3.40;;;2.60;;
15476;SDS011;7840;42.702;23.296;2022-10-16T13:17:33;3.03;;;2.78;;
15476;SDS011;7840;42.702;23.296;2022-10-16T13:20:12;2.85;;;2.60;;
15476;SDS011;7840;42.702;23.296;2022-10-16T13:25:53;4.20;;;2.92;;
15476;SDS011;7840;42.702;23.296;2022-10-16T13:28:33;8.00;;;3.13;;
15476;SDS011;7840;42.702;23.296;2022-10-16T13:31:10;5.70;;;3.28;;
15476;SDS011;7840;42.702;23.296;2022-10-16T13:33:56;7.28;;;2.72;;
15476;SDS011;7840;42.702;23.296;2022-10-16T13:36:26;3.33;;;3.00;;
15476;SDS011;7840;42.702;23.296;2022-10-16T13:39:00;4.05;;;2.92;;
15476;SDS011;7840;42.702;23.296;2022-10-16T13:41:37;3.38;;;3.08;;
15476;SDS011;7840;42.702;23.296;2022-10-16T13:44:07;3.92;;;3.22;;
15476;SDS011;7840;42.702;23.296;2022-10-16T13:46:42;3.53;;;2.65;;
15476;SDS011;7840;42.702;23.296;2022-10-16T13:49:12;4.20;;;2.88;;
15476;SDS011;7840;42.702;23.296;2022-10-16T13:51:53;3.45;;;2.70;;
15476;SDS011;7840;42.702;23.296;2022-10-16T13:54:36;2.67;;;2.30;;
15476;SDS011;7840;42.702;23.296;2022-10-16T13:57:04;3.47;;;2.50;;
15476;SDS011;7840;42.702;23.296;2022-10-16T13:59:35;4.10;;;2.55;;
15476;SDS011;7840;42.702;23.296;2022-10-16T14:02:24;5.20;;;2.95;;
15476;SDS011;7840;42.702;23.296;2022-10-16T14:04:55;3.25;;;2.67;;
15476;SDS011;7840;42.702;23.296;2022-10-16T14:07:25;4.25;;;2.90;;
15476;SDS011;7840;42.702;23.296;2022-10-16T14:09:54;3.25;;;2.35;;
15476;SDS011;7840;42.702;23.296;2022-10-16T14:12:24;2.85;;;2.35;;
15476;SDS011;7840;42.702;23.296;2022-10-16T14:14:55;3.78;;;2.50;;
15476;SDS011;7840;42.702;23.296;2022-10-16T14:17:33;5.22;;;3.22;;
15476;SDS011;7840;42.702;23.296;2022-10-16T14:20:12;3.15;;;2.80;;
15476;SDS011;7840;42.702;23.296;2022-10-16T14:22:46;3.38;;;2.75;;
15476;SDS011;7840;42.702;23.296;2022-10-16T14:25:40;3.75;;;2.70;;
15476;SDS011;7840;42.702;23.296;2022-10-16T14:28:14;3.85;;;2.55;;
15476;SDS011;7840;42.702;23.296;2022-10-16T14:30:50;3.25;;;2.95;;
15476;SDS011;7840;42.702;23.296;2022-10-16T14:33:23;5.63;;;3.00;;
15476;SDS011;7840;42.702;23.296;2022-10-16T14:35:59;3.65;;;2.42;;
15476;SDS011;7840;42.702;23.296;2022-10-16T14:38:29;5.00;;;2.80;;
15476;SDS011;7840;42.702;23.296;2022-10-16T14:40:58;5.75;;;2.47;;
15476;SDS011;7840;42.702;23.296;2022-10-16T14:43:43;3.60;;;2.90;;
15476;SDS011;7840;42.702;23.296;2022-10-16T14:46:28;3.78;;;2.63;;
15476;SDS011;7840;42.702;23.296;2022-10-16T14:49:12;7.45;;;3.17;;
15476;SDS011;7840;42.702;23.296;2022-10-16T14:51:44;5.75;;;3.17;;
15476;SDS011;7840;42.702;23.296;2022-10-16T14:54:17;6.13;;;3.08;;
15476;SDS011;7840;42.702;23.296;2022-10-16T14:56:46;3.70;;;2.80;;
15476;SDS011;7840;42.702;23.296;2022-10-16T14:59:17;3.13;;;2.63;;
15476;SDS011;7840;42.702;23.296;2022-10-16T15:01:52;4.22;;;2.92;;
15476;SDS011;7840;42.702;23.296;2022-10-16T15:04:26;3.33;;;2.80;;
15476;SDS011;7840;42.702;23.296;2022-10-16T15:06:54;3.88;;;3.10;;
15476;SDS011;7840;42.702;23.296;2022-10-16T15:09:24;5.05;;;3.05;;
15476;SDS011;7840;42.702;23.296;2022-10-16T15:11:52;4.78;;;3.30;;
15476;SDS011;7840;42.702;23.296;2022-10-16T15:14:19;5.78;;;3.25;;
15476;SDS011;7840;42.702;23.296;2022-10-16T15:16:47;6.45;;;3.42;;
15476;SDS011;7840;42.702;23.296;2022-10-16T15:19:15;5.25;;;3.28;;
15476;SDS011;7840;42.702;23.296;2022-10-16T15:21:47;4.32;;;3.05;;
15476;SDS011;7840;42.702;23.296;2022-10-16T15:24:16;3.85;;;3.08;;
15476;SDS011;7840;42.702;23.296;2022-10-16T15:26:44;5.32;;;3.60;;
15476;SDS011;7840;42.702;23.296;2022-10-16T15:29:14;8.50;;;3.30;;
15476;SDS011;7840;42.702;23.296;2022-10-16T15:31:42;7.70;;;3.40;;
15476;SDS011;7840;42.702;23.296;2022-10-16T15:34:12;3.95;;;3.10;;
15476;SDS011;7840;42.702;23.296;2022-10-16T15:36:43;4.00;;;3.60;;
15476;SDS011;7840;42.702;23.296;2022-10-16T15:39:14;4.72;;;3.22;;
15476;SDS011;7840;42.702;23.296;2022-10-16T15:42:20;5.13;;;3.22;;
15476;SDS011;7840;42.702;23.296;2022-10-16T15:44:47;4.43;;;3.35;;
15476;SDS011;7840;42.702;23.296;2022-10-16T15:47:17;6.72;;;3.53;;
15476;SDS011;7840;42.702;23.296;2022-10-16T15:49:45;6.03;;;3.85;;
15476;SDS011;7840;42.702;23.296;2022-10-16T15:52:16;5.55;;;3.50;;
15476;SDS011;7840;42.702;23.296;2022-10-16T15:54:45;6.43;;;3.72;;
15476;SDS011;7840;42.702;23.296;2022-10-16T15:57:13;5.90;;;3.60;;
15476;SDS011;7840;42.702;23.296;2022-10-16T15:59:41;5.88;;;3.72;;
15476;SDS011;7840;42.702;23.296;2022-10-16T16:02:09;8.13;;;3.60;;
15476;SDS011;7840;42.702;23.296;2022-10-16T16:04:37;5.65;;;3.90;;
15476;SDS011;7840;42.702;23.296;2022-10-16T16:07:04;7.13;;;3.95;;
15476;SDS011;7840;42.702;23.296;2022-10-16T16:09:33;5.00;;;3.40;;
15476;SDS011;7840;42.702;23.296;2022-10-16T16:12:02;4.45;;;3.95;;
15476;SDS011;7840;42.702;23.296;2022-10-16T16:14:32;6.95;;;4.00;;
15476;SDS011;7840;42.702;23.296;2022-10-16T16:17:00;5.13;;;3.92;;
15476;SDS011;7840;42.702;23.296;2022-10-16T16:19:28;5.95;;;4.28;;
15476;SDS011;7840;42.702;23.296;2022-10-16T16:21:57;5.50;;;4.05;;
15476;SDS011;7840;42.702;23.296;2022-10-16T16:24:24;7.97;;;4.40;;
15476;SDS011;7840;42.702;23.296;2022-10-16T16:26:52;8.20;;;4.38;;
15476;SDS011;7840;42.702;23.296;2022-10-16T16:29:21;7.70;;;4.25;;
15476;SDS011;7840;42.702;23.296;2022-10-16T16:31:49;7.22;;;4.38;;
15476;SDS011;7840;42.702;23.296;2022-10-16T16:34:22;11.77;;;5.65;;
15476;SDS011;7840;42.702;23.296;2022-10-16T16:36:50;7.20;;;5.20;;
15476;SDS011;7840;42.702;23.296;2022-10-16T16:39:18;17.27;;;15.50;;
15476;SDS011;7840;42.702;23.296;2022-10-16T16:41:46;11.68;;;9.85;;
15476;SDS011;7840;42.702;23.296;2022-10-16T16:44:14;17.13;;;15.43;;
15476;SDS011;7840;42.702;23.296;2022-10-16T16:46:43;21.08;;;13.68;;
15476;SDS011;7840;42.702;23.296;2022-10-16T16:49:11;16.92;;;15.23;;
15476;SDS011;7840;42.702;23.296;2022-10-16T16:51:40;10.77;;;8.07;;
15476;SDS011;7840;42.702;23.296;2022-10-16T16:54:25;9.68;;;7.07;;
15476;SDS011;7840;42.702;23.296;2022-10-16T16:57:21;16.00;;;8.32;;
15476;SDS011;7840;42.702;23.296;2022-10-16T16:59:49;10.60;;;7.00;;
15476;SDS011;7840;42.702;23.296;2022-10-16T17:02:42;9.73;;;5.70;;
15476;SDS011;7840;42.702;23.296;2022-10-16T17:05:27;10.30;;;5.65;;
15476;SDS011;7840;42.702;23.296;2022-10-16T17:07:59;12.10;;;6.38;;
15476;SDS011;7840;42.702;23.296;2022-10-16T17:10:30;11.27;;;7.15;;
15476;SDS011;7840;42.702;23.296;2022-10-16T17:13:15;10.60;;;6.95;;
15476;SDS011;7840;42.702;23.296;2022-10-16T17:16:00;17.45;;;10.27;;
15476;SDS011;7840;42.702;23.296;2022-10-16T17:18:36;14.52;;;8.50;;
15476;SDS011;7840;42.702;23.296;2022-10-16T17:21:07;14.52;;;8.82;;
15476;SDS011;7840;42.702;23.296;2022-10-16T17:23:57;11.68;;;8.35;;
15476;SDS011;7840;42.702;23.296;2022-10-16T17:26:49;11.48;;;8.25;;
15476;SDS011;7840;42.702;23.296;2022-10-16T17:29:19;13.00;;;7.20;;
15476;SDS011;7840;42.702;23.296;2022-10-16T17:31:47;11.90;;;7.63;;
15476;SDS011;7840;42.702;23.296;2022-10-16T17:34:27;7.00;;;6.22;;
15476;SDS011;7840;42.702;23.296;2022-10-16T17:37:19;11.23;;;6.75;;
15476;SDS011;7840;42.702;23.296;2022-10-16T17:39:49;13.10;;;7.30;;
15476;SDS011;7840;42.702;23.296;2022-10-16T17:42:19;12.60;;;9.15;;
15476;SDS011;7840;42.702;23.296;2022-10-16T17:45:00;15.05;;;10.48;;
15476;SDS011;7840;42.702;23.296;2022-10-16T17:47:34;13.55;;;8.43;;
15476;SDS011;7840;42.702;23.296;2022-10-16T17:50:03;11.38;;;7.95;;
15476;SDS011;7840;42.702;23.296;2022-10-16T17:52:34;16.63;;;8.43;;
15476;SDS011;7840;42.702;23.296;2022-10-16T17:55:02;15.55;;;10.10;;
15476;SDS011;7840;42.702;23.296;2022-10-16T18:00:13;19.23;;;15.40;;
15476;SDS011;7840;42.702;23.296;2022-10-16T18:02:57;14.80;;;12.65;;
15476;SDS011;7840;42.702;23.296;2022-10-16T18:05:26;18.33;;;11.25;;
15476;SDS011;7840;42.702;23.296;2022-10-16T18:07:53;15.95;;;10.20;;
15476;SDS011;7840;42.702;23.296;2022-10-16T18:10:23;9.80;;;8.00;;
15476;SDS011;7840;42.702;23.296;2022-10-16T18:12:51;12.57;;;8.32;;
15476;SDS011;7840;42.702;23.296;2022-10-16T18:15:19;15.32;;;9.43;;
15476;SDS011;7840;42.702;23.296;2022-10-16T18:17:46;15.85;;;11.65;;
15476;SDS011;7840;42.702;23.296;2022-10-16T18:20:17;18.80;;;11.33;;
15476;SDS011;7840;42.702;23.296;2022-10-16T18:22:58;19.27;;;11.07;;
15476;SDS011;7840;42.702;23.296;2022-10-16T18:25:26;20.83;;;11.47;;
15476;SDS011;7840;42.702;23.296;2022-10-16T18:28:04;16.58;;;12.70;;
15476;SDS011;7840;42.702;23.296;2022-10-16T18:30:32;16.30;;;11.13;;
15476;SDS011;7840;42.702;23.296;2022-10-16T18:33:00;21.93;;;12.13;;
15476;SDS011;7840;42.702;23.296;2022-10-16T18:35:27;20.48;;;12.05;;
15476;SDS011;7840;42.702;23.296;2022-10-16T18:38:02;18.57;;;11.00;;
15476;SDS011;7840;42.702;23.296;2022-10-16T18:40:30;17.03;;;10.27;;
15476;SDS011;7840;42.702;23.296;2022-10-16T18:42:57;16.80;;;10.90;;
15476;SDS011;7840;42.702;23.296;2022-10-16T18:45:25;16.53;;;11.40;;
15476;SDS011;7840;42.702;23.296;2022-10-16T18:47:52;24.73;;;13.40;;
15476;SDS011;7840;42.702;23.296;2022-10-16T18:50:20;17.27;;;12.83;;